sensor_id;sensor_type;location;lat;lon;timestamp;P1;durP1;ratioP1;P2;durP2;ratioP2
48891;SDS011;50130;52.150;5.236;2023-03-01T00:01:09;16.8;;;14.0;;
48891;SDS011;50130;52.150;5.236;2023-03-01T00:02:49;16.11;;;14.4;;
48891;SDS011;50130;52.150;5.236;2023-03-01T00:04:25;15.3;;;13.7;;
48891;SDS011;50130;52.150;5.236;2023-03-01T00:06:03;15.9;;;14.2;;
48891;SDS011;50130;52.150;5.236;2023-03-01T00:09:16;16.0;;;14.3;;
48891;SDS011;50130;52.150;5.236;2023-03-01T00:11:01;15.7;;;13.9;;
48891;SDS011;50130;52.150;5.236;2023-03-01T00:12:39;16.11;;;14.4;;
48891;SDS011;50130;52.150;5.236;2023-03-01T00:14:15;15.6;;;14.0;;
48891;SDS011;50130;52.150;5.236;2023-03-01T00:17:28;17.61;;;14.7;;
48891;SDS011;50130;52.150;5.236;2023-03-01T00:19:04;17.2;;;14.0;;
48891;SDS011;50130;52.150;5.236;2023-03-01T00:20:41;16.8;;;14.6;;
48891;SDS011;50130;52.150;5.236;2023-03-01T00:23:53;17.7;;;15.7;;
48891;SDS011;50130;52.150;5.236;2023-03-01T00:25:30;18.41;;;16.5;;
48891;SDS011;50130;52.150;5.236;2023-03-01T00:27:07;18.0;;;16.11;;
48891;SDS011;50130;52.150;5.236;2023-03-01T00:30:20;18.61;;;16.61;;
48891;SDS011;50130;52.150;5.236;2023-03-01T00:31:56;22.0;;;17.11;;
48891;SDS011;50130;52.150;5.236;2023-03-01T00:33:32;20.2;;;16.4;;
48891;SDS011;50130;52.150;5.236;2023-03-01T00:35:09;19.41;;;17.0;;
48891;SDS011;50130;52.150;5.236;2023-03-01T00:38:22;20.0;;;17.41;;
48891;SDS011;50130;52.150;5.236;2023-03-01T00:39:58;18.91;;;15.9;;
48891;SDS011;50130;52.150;5.236;2023-03-01T00:41:34;19.8;;;17.11;;
48891;SDS011;50130;52.150;5.236;2023-03-01T00:44:46;19.91;;;17.5;;
48891;SDS011;50130;52.150;5.236;2023-03-01T00:46:24;20.7;;;17.7;;
48891;SDS011;50130;52.150;5.236;2023-03-01T00:48:02;19.5;;;17.5;;
48891;SDS011;50130;52.150;5.236;2023-03-01T00:51:14;21.0;;;18.41;;
48891;SDS011;50130;52.150;5.236;2023-03-01T00:52:53;19.61;;;17.5;;
48891;SDS011;50130;52.150;5.236;2023-03-01T00:54:30;19.91;;;17.0;;
48891;SDS011;50130;52.150;5.236;2023-03-01T00:56:08;18.5;;;16.2;;
48891;SDS011;50130;52.150;5.236;2023-03-01T00:59:21;18.7;;;16.3;;
48891;SDS011;50130;52.150;5.236;2023-03-01T01:00:58;17.41;;;15.5;;
48891;SDS011;50130;52.150;5.236;2023-03-01T01:02:34;17.8;;;15.9;;
48891;SDS011;50130;52.150;5.236;2023-03-01T01:05:49;17.61;;;15.7;;
48891;SDS011;50130;52.150;5.236;2023-03-01T01:07:25;18.7;;;16.8;;
48891;SDS011;50130;52.150;5.236;2023-03-01T01:09:02;19.3;;;16.7;;
48891;SDS011;50130;52.150;5.236;2023-03-01T01:12:19;20.3;;;15.4;;
48891;SDS011;50130;52.150;5.236;2023-03-01T01:13:56;20.6;;;17.3;;
48891;SDS011;50130;52.150;5.236;2023-03-01T01:15:33;19.8;;;17.41;;
48891;SDS011;50130;52.150;5.236;2023-03-01T01:17:10;20.5;;;17.7;;
48891;SDS011;50130;52.150;5.236;2023-03-01T01:20:22;20.2;;;17.7;;
48891;SDS011;50130;52.150;5.236;2023-03-01T01:21:58;23.2;;;20.7;;
48891;SDS011;50130;52.150;5.236;2023-03-01T01:23:35;26.2;;;23.4;;
48891;SDS011;50130;52.150;5.236;2023-03-01T01:26:48;25.2;;;22.5;;
48891;SDS011;50130;52.150;5.236;2023-03-01T01:28:25;27.2;;;21.7;;
48891;SDS011;50130;52.150;5.236;2023-03-01T01:30:01;22.9;;;20.5;;
48891;SDS011;50130;52.150;5.236;2023-03-01T01:31:39;23.9;;;20.7;;
48891;SDS011;50130;52.150;5.236;2023-03-01T01:34:53;22.2;;;18.61;;
48891;SDS011;50130;52.150;5.236;2023-03-01T01:36:30;23.3;;;19.11;;
48891;SDS011;50130;52.150;5.236;2023-03-01T01:38:09;22.0;;;18.5;;
48891;SDS011;50130;52.150;5.236;2023-03-01T01:41:21;21.8;;;17.41;;
48891;SDS011;50130;52.150;5.236;2023-03-01T01:42:59;19.0;;;17.0;;
48891;SDS011;50130;52.150;5.236;2023-03-01T01:44:35;21.8;;;18.3;;
48891;SDS011;50130;52.150;5.236;2023-03-01T01:47:57;21.1;;;18.11;;
48891;SDS011;50130;52.150;5.236;2023-03-01T01:49:40;20.9;;;17.7;;
48891;SDS011;50130;52.150;5.236;2023-03-01T01:51:21;21.3;;;18.61;;
48891;SDS011;50130;52.150;5.236;2023-03-01T01:53:01;22.9;;;19.3;;
48891;SDS011;50130;52.150;5.236;2023-03-01T01:54:39;22.2;;;18.8;;
48891;SDS011;50130;52.150;5.236;2023-03-01T01:58:02;20.3;;;18.11;;
48891;SDS011;50130;52.150;5.236;2023-03-01T01:59:43;22.0;;;19.11;;
48891;SDS011;50130;52.150;5.236;2023-03-01T02:01:25;19.5;;;17.5;;
48891;SDS011;50130;52.150;5.236;2023-03-01T02:03:03;20.3;;;18.2;;
48891;SDS011;50130;52.150;5.236;2023-03-01T02:06:24;21.4;;;19.11;;
48891;SDS011;50130;52.150;5.236;2023-03-01T02:08:05;22.4;;;20.0;;
48891;SDS011;50130;52.150;5.236;2023-03-01T02:09:45;23.0;;;20.41;;
48891;SDS011;50130;52.150;5.236;2023-03-01T02:11:24;22.6;;;19.8;;
48891;SDS011;50130;52.150;5.236;2023-03-01T02:14:40;21.4;;;18.5;;
48891;SDS011;50130;52.150;5.236;2023-03-01T02:16:16;22.9;;;20.41;;
48891;SDS011;50130;52.150;5.236;2023-03-01T02:17:53;21.3;;;19.0;;
48891;SDS011;50130;52.150;5.236;2023-03-01T02:21:37;21.7;;;19.2;;
48891;SDS011;50130;52.150;5.236;2023-03-01T02:23:24;21.8;;;19.11;;
48891;SDS011;50130;52.150;5.236;2023-03-01T02:25:04;21.5;;;19.11;;
48891;SDS011;50130;52.150;5.236;2023-03-01T02:26:51;22.8;;;20.41;;
48891;SDS011;50130;52.150;5.236;2023-03-01T02:28:31;21.1;;;18.8;;
48891;SDS011;50130;52.150;5.236;2023-03-01T02:31:46;23.6;;;19.91;;
48891;SDS011;50130;52.150;5.236;2023-03-01T02:33:24;23.0;;;20.5;;
48891;SDS011;50130;52.150;5.236;2023-03-01T02:35:01;24.1;;;21.5;;
48891;SDS011;50130;52.150;5.236;2023-03-01T02:36:39;24.4;;;21.5;;
48891;SDS011;50130;52.150;5.236;2023-03-01T02:39:56;23.8;;;20.9;;
48891;SDS011;50130;52.150;5.236;2023-03-01T02:41:37;24.9;;;22.2;;
48891;SDS011;50130;52.150;5.236;2023-03-01T02:43:17;22.7;;;20.3;;
48891;SDS011;50130;52.150;5.236;2023-03-01T02:44:57;23.9;;;20.7;;
48891;SDS011;50130;52.150;5.236;2023-03-01T02:48:18;23.5;;;21.0;;
48891;SDS011;50130;52.150;5.236;2023-03-01T02:49:55;25.3;;;22.3;;
48891;SDS011;50130;52.150;5.236;2023-03-01T02:51:37;25.5;;;22.1;;
48891;SDS011;50130;52.150;5.236;2023-03-01T02:53:25;23.2;;;20.2;;
48891;SDS011;50130;52.150;5.236;2023-03-01T02:56:49;22.3;;;19.91;;
48891;SDS011;50130;52.150;5.236;2023-03-01T02:58:27;24.6;;;21.9;;
48891;SDS011;50130;52.150;5.236;2023-03-01T03:00:05;24.2;;;21.6;;
48891;SDS011;50130;52.150;5.236;2023-03-01T03:01:44;27.0;;;23.8;;
48891;SDS011;50130;52.150;5.236;2023-03-01T03:04:57;27.2;;;23.3;;
48891;SDS011;50130;52.150;5.236;2023-03-01T03:06:33;27.3;;;23.2;;
48891;SDS011;50130;52.150;5.236;2023-03-01T03:08:10;29.0;;;24.6;;
48891;SDS011;50130;52.150;5.236;2023-03-01T03:11:22;28.3;;;25.1;;
48891;SDS011;50130;52.150;5.236;2023-03-01T03:12:59;29.3;;;24.5;;
48891;SDS011;50130;52.150;5.236;2023-03-01T03:14:37;26.1;;;23.3;;
48891;SDS011;50130;52.150;5.236;2023-03-01T03:16:13;28.2;;;24.0;;
48891;SDS011;50130;52.150;5.236;2023-03-01T03:19:28;28.0;;;24.0;;
48891;SDS011;50130;52.150;5.236;2023-03-01T03:21:06;29.7;;;24.8;;
48891;SDS011;50130;52.150;5.236;2023-03-01T03:22:43;29.1;;;24.5;;
48891;SDS011;50130;52.150;5.236;2023-03-01T03:25:55;27.6;;;24.8;;
48891;SDS011;50130;52.150;5.236;2023-03-01T03:27:31;28.3;;;24.5;;
48891;SDS011;50130;52.150;5.236;2023-03-01T03:29:08;26.2;;;23.1;;
48891;SDS011;50130;52.150;5.236;2023-03-01T03:32:20;27.0;;;23.4;;
48891;SDS011;50130;52.150;5.236;2023-03-01T03:33:56;27.8;;;24.4;;
48891;SDS011;50130;52.150;5.236;2023-03-01T03:35:33;29.5;;;24.5;;
48891;SDS011;50130;52.150;5.236;2023-03-01T03:37:15;30.0;;;25.5;;
48891;SDS011;50130;52.150;5.236;2023-03-01T03:40:29;28.6;;;25.2;;
48891;SDS011;50130;52.150;5.236;2023-03-01T03:42:08;29.4;;;25.6;;
48891;SDS011;50130;52.150;5.236;2023-03-01T03:43:44;28.6;;;25.0;;
48891;SDS011;50130;52.150;5.236;2023-03-01T03:46:56;26.7;;;23.7;;
48891;SDS011;50130;52.150;5.236;2023-03-01T03:48:33;27.1;;;24.2;;
48891;SDS011;50130;52.150;5.236;2023-03-01T03:50:10;27.6;;;23.9;;
48891;SDS011;50130;52.150;5.236;2023-03-01T03:51:47;29.8;;;24.3;;
48891;SDS011;50130;52.150;5.236;2023-03-01T03:55:03;29.1;;;25.0;;
48891;SDS011;50130;52.150;5.236;2023-03-01T03:56:40;28.3;;;25.2;;
48891;SDS011;50130;52.150;5.236;2023-03-01T03:58:16;28.6;;;25.0;;
48891;SDS011;50130;52.150;5.236;2023-03-01T04:01:30;29.2;;;25.6;;
48891;SDS011;50130;52.150;5.236;2023-03-01T04:03:07;27.4;;;24.5;;
48891;SDS011;50130;52.150;5.236;2023-03-01T04:04:45;26.9;;;23.4;;
48891;SDS011;50130;52.150;5.236;2023-03-01T04:07:58;28.7;;;24.1;;
48891;SDS011;50130;52.150;5.236;2023-03-01T04:09:35;27.4;;;23.3;;
48891;SDS011;50130;52.150;5.236;2023-03-01T04:11:11;28.3;;;25.0;;
48891;SDS011;50130;52.150;5.236;2023-03-01T04:12:48;29.5;;;25.1;;
48891;SDS011;50130;52.150;5.236;2023-03-01T04:16:00;27.3;;;24.4;;
48891;SDS011;50130;52.150;5.236;2023-03-01T04:17:37;26.5;;;23.8;;
48891;SDS011;50130;52.150;5.236;2023-03-01T04:19:13;28.0;;;24.5;;
48891;SDS011;50130;52.150;5.236;2023-03-01T04:22:26;26.0;;;23.2;;
48891;SDS011;50130;52.150;5.236;2023-03-01T04:24:02;27.6;;;23.8;;
48891;SDS011;50130;52.150;5.236;2023-03-01T04:25:40;27.1;;;23.2;;
48891;SDS011;50130;52.150;5.236;2023-03-01T04:28:54;27.8;;;24.4;;
48891;SDS011;50130;52.150;5.236;2023-03-01T04:30:30;25.6;;;22.8;;
48891;SDS011;50130;52.150;5.236;2023-03-01T04:32:06;28.1;;;24.3;;
48891;SDS011;50130;52.150;5.236;2023-03-01T04:33:43;26.9;;;23.9;;
48891;SDS011;50130;52.150;5.236;2023-03-01T04:36:56;29.0;;;24.4;;
48891;SDS011;50130;52.150;5.236;2023-03-01T04:38:32;29.4;;;25.6;;
48891;SDS011;50130;52.150;5.236;2023-03-01T04:40:09;28.7;;;25.4;;
48891;SDS011;50130;52.150;5.236;2023-03-01T04:43:23;28.7;;;25.4;;
48891;SDS011;50130;52.150;5.236;2023-03-01T04:44:59;30.9;;;25.2;;
48891;SDS011;50130;52.150;5.236;2023-03-01T04:46:35;28.4;;;24.4;;
48891;SDS011;50130;52.150;5.236;2023-03-01T04:49:48;27.5;;;24.1;;
48891;SDS011;50130;52.150;5.236;2023-03-01T04:51:25;27.1;;;24.2;;
48891;SDS011;50130;52.150;5.236;2023-03-01T04:53:01;27.7;;;24.8;;
48891;SDS011;50130;52.150;5.236;2023-03-01T04:54:38;26.9;;;23.8;;
48891;SDS011;50130;52.150;5.236;2023-03-01T04:57:51;31.2;;;26.6;;
48891;SDS011;50130;52.150;5.236;2023-03-01T04:59:28;29.2;;;24.8;;
48891;SDS011;50130;52.150;5.236;2023-03-01T05:01:08;27.7;;;23.1;;
48891;SDS011;50130;52.150;5.236;2023-03-01T05:06:00;31.4;;;26.9;;
48891;SDS011;50130;52.150;5.236;2023-03-01T05:07:36;30.5;;;26.7;;
48891;SDS011;50130;52.150;5.236;2023-03-01T05:09:12;33.8;;;28.6;;
48891;SDS011;50130;52.150;5.236;2023-03-01T05:12:28;34.21;;;28.2;;
48891;SDS011;50130;52.150;5.236;2023-03-01T05:14:04;34.1;;;28.6;;
48891;SDS011;50130;52.150;5.236;2023-03-01T05:15:42;34.31;;;28.7;;
48891;SDS011;50130;52.150;5.236;2023-03-01T05:18:54;32.5;;;27.6;;
48891;SDS011;50130;52.150;5.236;2023-03-01T05:20:30;33.21;;;28.9;;
48891;SDS011;50130;52.150;5.236;2023-03-01T05:22:06;32.1;;;28.0;;
48891;SDS011;50130;52.150;5.236;2023-03-01T05:25:20;34.21;;;28.4;;
48891;SDS011;50130;52.150;5.236;2023-03-01T05:26:57;32.0;;;27.8;;
48891;SDS011;50130;52.150;5.236;2023-03-01T05:28:34;34.21;;;27.9;;
48891;SDS011;50130;52.150;5.236;2023-03-01T05:30:11;32.0;;;26.7;;
48891;SDS011;50130;52.150;5.236;2023-03-01T05:33:25;35.1;;;29.0;;
48891;SDS011;50130;52.150;5.236;2023-03-01T05:35:03;34.1;;;29.7;;
48891;SDS011;50130;52.150;5.236;2023-03-01T05:36:40;32.0;;;27.9;;
48891;SDS011;50130;52.150;5.236;2023-03-01T05:39:52;34.0;;;29.2;;
48891;SDS011;50130;52.150;5.236;2023-03-01T05:41:28;33.5;;;29.7;;
48891;SDS011;50130;52.150;5.236;2023-03-01T05:43:04;33.4;;;28.6;;
48891;SDS011;50130;52.150;5.236;2023-03-01T05:46:18;33.5;;;28.1;;
48891;SDS011;50130;52.150;5.236;2023-03-01T05:47:54;31.0;;;27.5;;
48891;SDS011;50130;52.150;5.236;2023-03-01T05:49:31;31.0;;;27.3;;
48891;SDS011;50130;52.150;5.236;2023-03-01T05:51:07;31.6;;;27.4;;
48891;SDS011;50130;52.150;5.236;2023-03-01T05:54:20;34.5;;;28.6;;
48891;SDS011;50130;52.150;5.236;2023-03-01T05:55:58;29.5;;;26.3;;
48891;SDS011;50130;52.150;5.236;2023-03-01T05:57:35;31.0;;;27.6;;
48891;SDS011;50130;52.150;5.236;2023-03-01T06:00:47;35.6;;;29.8;;
48891;SDS011;50130;52.150;5.236;2023-03-01T06:02:24;33.6;;;29.2;;
48891;SDS011;50130;52.150;5.236;2023-03-01T06:04:00;36.1;;;30.4;;
48891;SDS011;50130;52.150;5.236;2023-03-01T06:07:15;32.9;;;29.3;;
48891;SDS011;50130;52.150;5.236;2023-03-01T06:08:51;36.31;;;31.0;;
48891;SDS011;50130;52.150;5.236;2023-03-01T06:10:28;36.0;;;31.7;;
48891;SDS011;50130;52.150;5.236;2023-03-01T06:12:05;34.4;;;29.6;;
48891;SDS011;50130;52.150;5.236;2023-03-01T06:15:19;36.21;;;29.8;;
48891;SDS011;50130;52.150;5.236;2023-03-01T06:16:57;36.1;;;29.6;;
48891;SDS011;50130;52.150;5.236;2023-03-01T06:18:34;34.1;;;30.4;;
48891;SDS011;50130;52.150;5.236;2023-03-01T06:21:50;38.81;;;30.9;;
48891;SDS011;50130;52.150;5.236;2023-03-01T06:23:26;38.1;;;32.1;;
48891;SDS011;50130;52.150;5.236;2023-03-01T06:25:02;33.5;;;29.8;;
48891;SDS011;50130;52.150;5.236;2023-03-01T06:26:40;37.4;;;31.6;;
48891;SDS011;50130;52.150;5.236;2023-03-01T06:29:53;37.9;;;32.5;;
48891;SDS011;50130;52.150;5.236;2023-03-01T06:31:29;37.31;;;30.8;;
48891;SDS011;50130;52.150;5.236;2023-03-01T06:33:05;35.4;;;30.9;;
48891;SDS011;50130;52.150;5.236;2023-03-01T06:36:17;35.31;;;30.2;;
48891;SDS011;50130;52.150;5.236;2023-03-01T06:37:53;35.31;;;30.2;;
48891;SDS011;50130;52.150;5.236;2023-03-01T06:39:29;35.0;;;30.9;;
48891;SDS011;50130;52.150;5.236;2023-03-01T06:42:47;35.6;;;30.9;;
48891;SDS011;50130;52.150;5.236;2023-03-01T06:44:25;35.5;;;31.0;;
48891;SDS011;50130;52.150;5.236;2023-03-01T06:46:03;35.5;;;29.9;;
48891;SDS011;50130;52.150;5.236;2023-03-01T06:47:40;37.9;;;31.2;;
48891;SDS011;50130;52.150;5.236;2023-03-01T06:50:52;35.1;;;29.9;;
48891;SDS011;50130;52.150;5.236;2023-03-01T06:52:29;37.5;;;32.71;;
48891;SDS011;50130;52.150;5.236;2023-03-01T06:54:07;38.0;;;32.0;;
48891;SDS011;50130;52.150;5.236;2023-03-01T06:57:19;36.1;;;31.9;;
48891;SDS011;50130;52.150;5.236;2023-03-01T06:58:55;34.0;;;29.9;;
48891;SDS011;50130;52.150;5.236;2023-03-01T07:00:31;33.71;;;30.0;;
48891;SDS011;50130;52.150;5.236;2023-03-01T07:02:09;34.0;;;29.4;;
48891;SDS011;50130;52.150;5.236;2023-03-01T07:05:23;36.5;;;30.9;;
48891;SDS011;50130;52.150;5.236;2023-03-01T07:06:59;35.6;;;30.5;;
48891;SDS011;50130;52.150;5.236;2023-03-01T07:08:35;37.71;;;30.4;;
48891;SDS011;50130;52.150;5.236;2023-03-01T07:11:48;38.71;;;33.1;;
48891;SDS011;50130;52.150;5.236;2023-03-01T07:13:25;39.81;;;33.21;;
48891;SDS011;50130;52.150;5.236;2023-03-01T07:15:02;38.31;;;31.7;;
48891;SDS011;50130;52.150;5.236;2023-03-01T07:18:16;39.6;;;33.9;;
48891;SDS011;50130;52.150;5.236;2023-03-01T07:19:52;40.6;;;35.71;;
48891;SDS011;50130;52.150;5.236;2023-03-01T07:21:29;42.0;;;36.0;;
48891;SDS011;50130;52.150;5.236;2023-03-01T07:23:05;39.1;;;33.71;;
48891;SDS011;50130;52.150;5.236;2023-03-01T07:26:19;38.0;;;31.7;;
48891;SDS011;50130;52.150;5.236;2023-03-01T07:27:55;39.4;;;34.1;;
48891;SDS011;50130;52.150;5.236;2023-03-01T07:29:31;43.4;;;34.1;;
48891;SDS011;50130;52.150;5.236;2023-03-01T07:32:43;37.9;;;32.3;;
48891;SDS011;50130;52.150;5.236;2023-03-01T07:34:20;39.4;;;34.71;;
48891;SDS011;50130;52.150;5.236;2023-03-01T07:35:56;39.81;;;33.9;;
48891;SDS011;50130;52.150;5.236;2023-03-01T07:39:09;39.31;;;33.5;;
48891;SDS011;50130;52.150;5.236;2023-03-01T07:40:46;38.9;;;32.5;;
48891;SDS011;50130;52.150;5.236;2023-03-01T07:47:11;38.71;;;31.5;;
48891;SDS011;50130;52.150;5.236;2023-03-01T07:48:47;38.31;;;34.21;;
48891;SDS011;50130;52.150;5.236;2023-03-01T07:50:23;36.6;;;32.3;;
48891;SDS011;50130;52.150;5.236;2023-03-01T07:53:35;37.0;;;33.0;;
48891;SDS011;50130;52.150;5.236;2023-03-01T07:55:13;39.5;;;34.0;;
48891;SDS011;50130;52.150;5.236;2023-03-01T07:56:50;38.6;;;34.0;;
48891;SDS011;50130;52.150;5.236;2023-03-01T08:00:03;37.6;;;32.71;;
48891;SDS011;50130;52.150;5.236;2023-03-01T08:01:40;38.71;;;34.6;;
48891;SDS011;50130;52.150;5.236;2023-03-01T08:03:16;35.71;;;31.8;;
48891;SDS011;50130;52.150;5.236;2023-03-01T08:06:29;36.31;;;31.0;;
48891;SDS011;50130;52.150;5.236;2023-03-01T08:08:05;35.71;;;31.3;;
48891;SDS011;50130;52.150;5.236;2023-03-01T08:09:41;36.4;;;29.8;;
48891;SDS011;50130;52.150;5.236;2023-03-01T08:11:18;33.71;;;30.0;;
48891;SDS011;50130;52.150;5.236;2023-03-01T08:14:30;36.0;;;31.3;;
48891;SDS011;50130;52.150;5.236;2023-03-01T08:16:07;34.5;;;30.7;;
48891;SDS011;50130;52.150;5.236;2023-03-01T08:17:45;38.31;;;31.7;;
48891;SDS011;50130;52.150;5.236;2023-03-01T08:21:02;39.71;;;34.31;;
48891;SDS011;50130;52.150;5.236;2023-03-01T08:22:40;41.8;;;34.21;;
48891;SDS011;50130;52.150;5.236;2023-03-01T08:24:16;44.2;;;34.4;;
48891;SDS011;50130;52.150;5.236;2023-03-01T08:25:52;43.9;;;37.81;;
48891;SDS011;50130;52.150;5.236;2023-03-01T08:29:04;49.0;;;40.0;;
48891;SDS011;50130;52.150;5.236;2023-03-01T08:30:40;46.5;;;39.31;;
48891;SDS011;50130;52.150;5.236;2023-03-01T08:32:17;46.9;;;37.71;;
48891;SDS011;50130;52.150;5.236;2023-03-01T08:35:33;42.4;;;35.5;;
48891;SDS011;50130;52.150;5.236;2023-03-01T08:37:09;41.5;;;34.21;;
48891;SDS011;50130;52.150;5.236;2023-03-01T08:38:45;37.71;;;32.6;;
48891;SDS011;50130;52.150;5.236;2023-03-01T08:41:58;39.71;;;33.71;;
48891;SDS011;50130;52.150;5.236;2023-03-01T08:43:34;39.6;;;32.21;;
48891;SDS011;50130;52.150;5.236;2023-03-01T08:45:10;40.9;;;33.71;;
48891;SDS011;50130;52.150;5.236;2023-03-01T08:46:47;35.6;;;31.2;;
48891;SDS011;50130;52.150;5.236;2023-03-01T08:50:00;35.81;;;30.3;;
48891;SDS011;50130;52.150;5.236;2023-03-01T08:51:38;36.21;;;31.6;;
48891;SDS011;50130;52.150;5.236;2023-03-01T08:53:15;37.81;;;31.8;;
48891;SDS011;50130;52.150;5.236;2023-03-01T08:56:27;34.1;;;29.9;;
48891;SDS011;50130;52.150;5.236;2023-03-01T08:58:03;33.8;;;28.8;;
48891;SDS011;50130;52.150;5.236;2023-03-01T08:59:39;32.6;;;29.0;;
48891;SDS011;50130;52.150;5.236;2023-03-01T09:02:55;28.5;;;25.2;;
48891;SDS011;50130;52.150;5.236;2023-03-01T09:04:31;29.6;;;23.9;;
48891;SDS011;50130;52.150;5.236;2023-03-01T09:06:07;25.3;;;21.5;;
48891;SDS011;50130;52.150;5.236;2023-03-01T09:07:44;23.8;;;21.3;;
48891;SDS011;50130;52.150;5.236;2023-03-01T09:10:56;24.3;;;20.3;;
48891;SDS011;50130;52.150;5.236;2023-03-01T09:12:32;24.2;;;20.5;;
48891;SDS011;50130;52.150;5.236;2023-03-01T09:14:09;22.7;;;20.3;;
48891;SDS011;50130;52.150;5.236;2023-03-01T09:17:21;24.1;;;19.2;;
48891;SDS011;50130;52.150;5.236;2023-03-01T09:18:57;20.5;;;17.8;;
48891;SDS011;50130;52.150;5.236;2023-03-01T09:20:33;21.7;;;18.0;;
48891;SDS011;50130;52.150;5.236;2023-03-01T09:23:46;20.0;;;17.7;;
48891;SDS011;50130;52.150;5.236;2023-03-01T09:25:24;20.6;;;17.2;;
48891;SDS011;50130;52.150;5.236;2023-03-01T09:27:00;19.3;;;17.11;;
48891;SDS011;50130;52.150;5.236;2023-03-01T09:28:36;18.7;;;16.7;;
48891;SDS011;50130;52.150;5.236;2023-03-01T09:31:49;20.0;;;16.61;;
48891;SDS011;50130;52.150;5.236;2023-03-01T09:33:26;18.2;;;15.5;;
48891;SDS011;50130;52.150;5.236;2023-03-01T09:35:03;17.3;;;15.5;;
48891;SDS011;50130;52.150;5.236;2023-03-01T09:38:16;17.5;;;15.2;;
48891;SDS011;50130;52.150;5.236;2023-03-01T09:39:52;17.0;;;14.5;;
48891;SDS011;50130;52.150;5.236;2023-03-01T09:41:35;16.61;;;14.7;;
48891;SDS011;50130;52.150;5.236;2023-03-01T09:43:34;19.11;;;15.0;;
48891;SDS011;50130;52.150;5.236;2023-03-01T09:45:26;17.5;;;14.9;;
48891;SDS011;50130;52.150;5.236;2023-03-01T09:48:55;18.0;;;14.4;;
48891;SDS011;50130;52.150;5.236;2023-03-01T09:50:38;16.11;;;13.3;;
48891;SDS011;50130;52.150;5.236;2023-03-01T09:52:19;15.7;;;12.9;;
48891;SDS011;50130;52.150;5.236;2023-03-01T09:54:05;14.5;;;12.3;;
48891;SDS011;50130;52.150;5.236;2023-03-01T09:57:26;16.5;;;12.6;;
48891;SDS011;50130;52.150;5.236;2023-03-01T09:59:09;16.61;;;11.9;;
48891;SDS011;50130;52.150;5.236;2023-03-01T10:00:59;14.7;;;12.2;;
48891;SDS011;50130;52.150;5.236;2023-03-01T10:02:46;15.2;;;11.6;;
48891;SDS011;50130;52.150;5.236;2023-03-01T10:04:28;14.3;;;11.6;;
48891;SDS011;50130;52.150;5.236;2023-03-01T10:06:18;14.8;;;11.5;;
48891;SDS011;50130;52.150;5.236;2023-03-01T10:10:01;13.8;;;11.4;;
48891;SDS011;50130;52.150;5.236;2023-03-01T10:11:41;14.6;;;11.1;;
48891;SDS011;50130;52.150;5.236;2023-03-01T10:13:22;14.6;;;12.1;;
48891;SDS011;50130;52.150;5.236;2023-03-01T10:15:06;12.5;;;10.5;;
48891;SDS011;50130;52.150;5.236;2023-03-01T10:16:48;14.6;;;11.9;;
48891;SDS011;50130;52.150;5.236;2023-03-01T10:20:14;15.3;;;11.9;;
48891;SDS011;50130;52.150;5.236;2023-03-01T10:22:00;13.4;;;11.4;;
48891;SDS011;50130;52.150;5.236;2023-03-01T10:23:45;14.9;;;12.2;;
48891;SDS011;50130;52.150;5.236;2023-03-01T10:25:32;13.8;;;11.6;;
48891;SDS011;50130;52.150;5.236;2023-03-01T10:27:22;16.2;;;11.9;;
48891;SDS011;50130;52.150;5.236;2023-03-01T10:30:40;13.1;;;10.7;;
48891;SDS011;50130;52.150;5.236;2023-03-01T10:32:17;11.1;;;9.81;;
48891;SDS011;50130;52.150;5.236;2023-03-01T10:33:54;11.2;;;9.71;;
48891;SDS011;50130;52.150;5.236;2023-03-01T10:35:32;12.6;;;10.0;;
48891;SDS011;50130;52.150;5.236;2023-03-01T10:38:49;12.2;;;9.71;;
48891;SDS011;50130;52.150;5.236;2023-03-01T10:40:27;12.4;;;9.4;;
48891;SDS011;50130;52.150;5.236;2023-03-01T10:42:05;11.4;;;8.31;;
48891;SDS011;50130;52.150;5.236;2023-03-01T10:43:54;9.81;;;7.9;;
48891;SDS011;50130;52.150;5.236;2023-03-01T10:47:13;10.5;;;7.6;;
48891;SDS011;50130;52.150;5.236;2023-03-01T10:49:25;10.21;;;7.2;;
48891;SDS011;50130;52.150;5.236;2023-03-01T10:51:05;9.4;;;6.3;;
48891;SDS011;50130;52.150;5.236;2023-03-01T10:52:42;9.9;;;6.3;;
48891;SDS011;50130;52.150;5.236;2023-03-01T10:54:33;7.5;;;6.1;;
48891;SDS011;50130;52.150;5.236;2023-03-01T10:57:48;7.1;;;6.1;;
48891;SDS011;50130;52.150;5.236;2023-03-01T10:59:27;8.81;;;6.7;;
48891;SDS011;50130;52.150;5.236;2023-03-01T11:01:08;9.0;;;6.9;;
48891;SDS011;50130;52.150;5.236;2023-03-01T11:03:09;9.0;;;6.7;;
48891;SDS011;50130;52.150;5.236;2023-03-01T11:04:56;9.0;;;7.0;;
48891;SDS011;50130;52.150;5.236;2023-03-01T11:06:57;9.0;;;7.0;;
48891;SDS011;50130;52.150;5.236;2023-03-01T11:10:17;8.5;;;6.7;;
48891;SDS011;50130;52.150;5.236;2023-03-01T11:11:57;9.31;;;6.6;;
48891;SDS011;50130;52.150;5.236;2023-03-01T11:13:36;8.31;;;6.5;;
48891;SDS011;50130;52.150;5.236;2023-03-01T11:15:24;11.2;;;7.6;;
48891;SDS011;50130;52.150;5.236;2023-03-01T11:18:55;9.9;;;7.2;;
48891;SDS011;50130;52.150;5.236;2023-03-01T11:20:33;9.6;;;7.0;;
48891;SDS011;50130;52.150;5.236;2023-03-01T11:22:13;10.21;;;7.5;;
48891;SDS011;50130;52.150;5.236;2023-03-01T11:23:53;10.9;;;7.5;;
48891;SDS011;50130;52.150;5.236;2023-03-01T11:27:19;8.9;;;6.9;;
48891;SDS011;50130;52.150;5.236;2023-03-01T11:29:00;9.5;;;6.3;;
48891;SDS011;50130;52.150;5.236;2023-03-01T11:30:43;8.1;;;5.5;;
48891;SDS011;50130;52.150;5.236;2023-03-01T11:32:35;16.8;;;9.71;;
48891;SDS011;50130;52.150;5.236;2023-03-01T11:34:24;11.1;;;8.1;;
48891;SDS011;50130;52.150;5.236;2023-03-01T11:36:26;10.8;;;7.9;;
48891;SDS011;50130;52.150;5.236;2023-03-01T11:39:58;7.9;;;5.6;;
48891;SDS011;50130;52.150;5.236;2023-03-01T11:41:42;9.1;;;7.0;;
48891;SDS011;50130;52.150;5.236;2023-03-01T11:43:26;6.3;;;4.91;;
48891;SDS011;50130;52.150;5.236;2023-03-01T11:45:10;7.6;;;5.4;;
48891;SDS011;50130;52.150;5.236;2023-03-01T11:46:51;6.3;;;4.61;;
48891;SDS011;50130;52.150;5.236;2023-03-01T11:49:16;8.0;;;5.4;;
48891;SDS011;50130;52.150;5.236;2023-03-01T11:52:17;9.71;;;5.4;;
48891;SDS011;50130;52.150;5.236;2023-03-01T11:54:13;9.71;;;5.9;;
48891;SDS011;50130;52.150;5.236;2023-03-01T11:56:03;7.8;;;5.0;;
48891;SDS011;50130;52.150;5.236;2023-03-01T11:57:57;6.2;;;5.0;;
48891;SDS011;50130;52.150;5.236;2023-03-01T12:00:07;7.6;;;5.11;;
48891;SDS011;50130;52.150;5.236;2023-03-01T12:02:02;9.1;;;5.0;;
48891;SDS011;50130;52.150;5.236;2023-03-01T12:05:02;5.2;;;4.61;;
48891;SDS011;50130;52.150;5.236;2023-03-01T12:07:56;6.4;;;5.11;;
48891;SDS011;50130;52.150;5.236;2023-03-01T12:09:47;8.81;;;4.91;;
48891;SDS011;50130;52.150;5.236;2023-03-01T12:13:42;6.3;;;4.8;;
48891;SDS011;50130;52.150;5.236;2023-03-01T12:15:44;6.6;;;4.61;;
48891;SDS011;50130;52.150;5.236;2023-03-01T12:17:55;5.9;;;4.41;;
48891;SDS011;50130;52.150;5.236;2023-03-01T12:19:55;6.0;;;4.8;;
48891;SDS011;50130;52.150;5.236;2023-03-01T12:21:53;7.5;;;5.11;;
48891;SDS011;50130;52.150;5.236;2023-03-01T12:24:10;6.3;;;4.91;;
48891;SDS011;50130;52.150;5.236;2023-03-01T12:26:57;6.9;;;5.5;;
48891;SDS011;50130;52.150;5.236;2023-03-01T12:28:53;8.71;;;5.8;;
48891;SDS011;50130;52.150;5.236;2023-03-01T12:31:04;7.6;;;5.7;;
48891;SDS011;50130;52.150;5.236;2023-03-01T12:33:50;7.8;;;5.5;;
48891;SDS011;50130;52.150;5.236;2023-03-01T12:35:36;6.8;;;5.4;;
48891;SDS011;50130;52.150;5.236;2023-03-01T12:37:29;5.6;;;5.0;;
48891;SDS011;50130;52.150;5.236;2023-03-01T12:39:23;7.3;;;5.4;;
48891;SDS011;50130;52.150;5.236;2023-03-01T12:43:48;7.4;;;5.6;;
48891;SDS011;50130;52.150;5.236;2023-03-01T12:45:43;7.6;;;5.5;;
48891;SDS011;50130;52.150;5.236;2023-03-01T12:47:42;5.4;;;4.91;;